Cloverdale, Vermont
Current Conditions -  °F | °C
As of 10:54 PM on Tuesday 21 Oct 2014 (Local Time) from KMVL Reporting Station
Moderate Rain Moderate Rain  
Wind Chill:   Ceiling: 1100
Heat Index:   Visibility: 4mi
Dew Point:   Wind: 0mph
Humidity: 93%   Direction: NA
Pressure: 30.11"   Gusts: NA
Location:  44.6543°N, 72.8545°W
Report Text: KMVL 220254Z AUTO 00000KT 4SM RA BR OVC011 08/07 A3011 RMK AO2 SLP201 P0002 60004 T00830072 53015
Loading
Personal Weather Stations






























Interactive Weather Map
Tropical Storm Tracking
New forecast layout! Learn more

10-Day Weather Forecast

Advertisements
Track Severe Weather on mobile